sensor_id;sensor_type;location;lat;lon;timestamp;pressure;altitude;pressure_sealevel;temperature;humidity
7407;BME280;3745;56.964;24.128;2023-05-23T00:01:03;101624.53;;;14.59;100.00
7407;BME280;3745;56.964;24.128;2023-05-23T00:03:31;101619.44;;;14.59;100.00
7407;BME280;3745;56.964;24.128;2023-05-23T00:05:57;101626.19;;;14.54;100.00
7407;BME280;3745;56.964;24.128;2023-05-23T00:08:24;101612.50;;;14.46;100.00
7407;BME280;3745;56.964;24.128;2023-05-23T00:10:50;101623.56;;;14.48;100.00
7407;BME280;3745;56.964;24.128;2023-05-23T00:13:15;101595.44;;;14.36;100.00
7407;BME280;3745;56.964;24.128;2023-05-23T00:15:42;101595.41;;;14.33;100.00
7407;BME280;3745;56.964;24.128;2023-05-23T00:18:08;101579.97;;;14.21;100.00
7407;BME280;3745;56.964;24.128;2023-05-23T00:20:37;101567.97;;;14.11;100.00
7407;BME280;3745;56.964;24.128;2023-05-23T00:23:05;101612.41;;;14.37;100.00
7407;BME280;3745;56.964;24.128;2023-05-23T00:25:31;101615.78;;;14.33;100.00
7407;BME280;3745;56.964;24.128;2023-05-23T00:28:02;101588.41;;;14.20;100.00
7407;BME280;3745;56.964;24.128;2023-05-23T00:30:32;101593.47;;;14.17;100.00
7407;BME280;3745;56.964;24.128;2023-05-23T00:32:58;101606.28;;;14.25;100.00
7407;BME280;3745;56.964;24.128;2023-05-23T00:35:25;101609.72;;;14.27;100.00
7407;BME280;3745;56.964;24.128;2023-05-23T00:37:51;101608.81;;;14.23;100.00
7407;BME280;3745;56.964;24.128;2023-05-23T00:40:17;101590.88;;;14.11;100.00
7407;BME280;3745;56.964;24.128;2023-05-23T00:42:43;101583.16;;;14.05;100.00
7407;BME280;3745;56.964;24.128;2023-05-23T00:45:10;101593.38;;;14.08;100.00
7407;BME280;3745;56.964;24.128;2023-05-23T00:47:38;101606.97;;;14.10;100.00
7407;BME280;3745;56.964;24.128;2023-05-23T00:50:15;101611.94;;;14.01;100.00
7407;BME280;3745;56.964;24.128;2023-05-23T00:52:42;101610.25;;;14.01;100.00
7407;BME280;3745;56.964;24.128;2023-05-23T00:55:09;101589.63;;;13.82;100.00
7407;BME280;3745;56.964;24.128;2023-05-23T00:57:35;101611.06;;;13.97;100.00
7407;BME280;3745;56.964;24.128;2023-05-23T01:00:07;101611.00;;;13.94;100.00
7407;BME280;3745;56.964;24.128;2023-05-23T01:02:37;101607.69;;;13.98;100.00
7407;BME280;3745;56.964;24.128;2023-05-23T01:05:06;101608.53;;;13.99;100.00
7407;BME280;3745;56.964;24.128;2023-05-23T01:07:31;101577.66;;;13.72;100.00
7407;BME280;3745;56.964;24.128;2023-05-23T01:09:57;101610.94;;;13.88;100.00
7407;BME280;3745;56.964;24.128;2023-05-23T01:12:54;101601.63;;;13.89;100.00
7407;BME280;3745;56.964;24.128;2023-05-23T01:15:24;101600.69;;;13.81;100.00
7407;BME280;3745;56.964;24.128;2023-05-23T01:18:02;101612.56;;;13.85;100.00
7407;BME280;3745;56.964;24.128;2023-05-23T01:20:54;101613.41;;;13.81;100.00
7407;BME280;3745;56.964;24.128;2023-05-23T01:29:37;101600.47;;;13.66;100.00
7407;BME280;3745;56.964;24.128;2023-05-23T01:32:06;101622.66;;;13.77;100.00
7407;BME280;3745;56.964;24.128;2023-05-23T01:34:34;101553.50;;;13.42;100.00
7407;BME280;3745;56.964;24.128;2023-05-23T01:37:00;101615.91;;;13.78;100.00
7407;BME280;3745;56.964;24.128;2023-05-23T01:39:26;101582.47;;;13.53;100.00
7407;BME280;3745;56.964;24.128;2023-05-23T01:41:52;101624.31;;;13.75;100.00
7407;BME280;3745;56.964;24.128;2023-05-23T01:44:19;101613.22;;;13.69;100.00
7407;BME280;3745;56.964;24.128;2023-05-23T01:46:46;101613.09;;;13.60;100.00
7407;BME280;3745;56.964;24.128;2023-05-23T01:49:13;101608.75;;;13.52;100.00
7407;BME280;3745;56.964;24.128;2023-05-23T01:51:40;101592.44;;;13.38;100.00
7407;BME280;3745;56.964;24.128;2023-05-23T01:54:06;101611.25;;;13.49;100.00
7407;BME280;3745;56.964;24.128;2023-05-23T01:56:32;101614.66;;;13.51;100.00
7407;BME280;3745;56.964;24.128;2023-05-23T01:58:58;101616.31;;;13.46;100.00
7407;BME280;3745;56.964;24.128;2023-05-23T02:01:24;101588.97;;;13.33;100.00
7407;BME280;3745;56.964;24.128;2023-05-23T02:03:50;101583.88;;;13.33;100.00
7407;BME280;3745;56.964;24.128;2023-05-23T02:06:16;101598.41;;;13.42;100.00
7407;BME280;3745;56.964;24.128;2023-05-23T02:08:42;101609.63;;;13.54;100.00
7407;BME280;3745;56.964;24.128;2023-05-23T02:11:07;101611.31;;;13.52;100.00
7407;BME280;3745;56.964;24.128;2023-05-23T02:13:35;101556.66;;;13.26;100.00
7407;BME280;3745;56.964;24.128;2023-05-23T02:16:00;101606.25;;;13.55;100.00
7407;BME280;3745;56.964;24.128;2023-05-23T02:18:26;101563.56;;;13.33;100.00
7407;BME280;3745;56.964;24.128;2023-05-23T02:20:54;101573.03;;;13.43;100.00
7407;BME280;3745;56.964;24.128;2023-05-23T02:23:21;101584.28;;;13.61;100.00
7407;BME280;3745;56.964;24.128;2023-05-23T02:25:46;101599.63;;;13.67;100.00
7407;BME280;3745;56.964;24.128;2023-05-23T02:28:12;101601.31;;;13.65;100.00
7407;BME280;3745;56.964;24.128;2023-05-23T02:30:38;101591.03;;;13.58;100.00
7407;BME280;3745;56.964;24.128;2023-05-23T02:33:05;101597.97;;;13.69;100.00
7407;BME280;3745;56.964;24.128;2023-05-23T02:35:31;101591.16;;;13.68;100.00
7407;BME280;3745;56.964;24.128;2023-05-23T02:37:57;101557.72;;;13.42;100.00
7407;BME280;3745;56.964;24.128;2023-05-23T02:40:22;101598.06;;;13.75;100.00
7407;BME280;3745;56.964;24.128;2023-05-23T02:42:48;101598.06;;;13.75;100.00
7407;BME280;3745;56.964;24.128;2023-05-23T02:45:16;101584.31;;;13.64;100.00
7407;BME280;3745;56.964;24.128;2023-05-23T02:47:41;101586.84;;;13.62;100.00
7407;BME280;3745;56.964;24.128;2023-05-23T02:50:07;101569.00;;;13.61;100.00
7407;BME280;3745;56.964;24.128;2023-05-23T02:52:32;101539.03;;;13.37;100.00
7407;BME280;3745;56.964;24.128;2023-05-23T02:54:58;101596.38;;;13.77;100.00
7407;BME280;3745;56.964;24.128;2023-05-23T02:57:23;101602.31;;;13.77;100.00
7407;BME280;3745;56.964;24.128;2023-05-23T02:59:49;101587.84;;;13.72;100.00
7407;BME280;3745;56.964;24.128;2023-05-23T03:02:14;101606.66;;;13.86;100.00
7407;BME280;3745;56.964;24.128;2023-05-23T03:04:40;101596.38;;;13.77;100.00
7407;BME280;3745;56.964;24.128;2023-05-23T03:07:06;101576.84;;;13.74;100.00
7407;BME280;3745;56.964;24.128;2023-05-23T03:09:32;101586.34;;;13.89;100.00
7407;BME280;3745;56.964;24.128;2023-05-23T03:11:58;101572.72;;;13.84;100.00
7407;BME280;3745;56.964;24.128;2023-05-23T03:14:23;101594.13;;;13.99;100.00
7407;BME280;3745;56.964;24.128;2023-05-23T03:16:49;101579.69;;;14.00;100.00
7407;BME280;3745;56.964;24.128;2023-05-23T03:19:14;101580.66;;;14.09;100.00
7407;BME280;3745;56.964;24.128;2023-05-23T03:21:40;101583.22;;;14.11;100.00
7407;BME280;3745;56.964;24.128;2023-05-23T03:24:05;101582.44;;;14.17;100.00
7407;BME280;3745;56.964;24.128;2023-05-23T03:26:31;101573.91;;;14.13;100.00
7407;BME280;3745;56.964;24.128;2023-05-23T03:28:56;101568.78;;;14.08;100.00
7407;BME280;3745;56.964;24.128;2023-05-23T03:31:22;101576.59;;;14.25;100.00
7407;BME280;3745;56.964;24.128;2023-05-23T03:33:48;101586.00;;;14.32;100.00
7407;BME280;3745;56.964;24.128;2023-05-23T03:36:13;101559.50;;;14.15;100.00
7407;BME280;3745;56.964;24.128;2023-05-23T03:38:39;101586.97;;;14.40;100.00
7407;BME280;3745;56.964;24.128;2023-05-23T03:41:04;101571.69;;;14.40;100.00
7407;BME280;3745;56.964;24.128;2023-05-23T03:43:30;101584.53;;;14.51;100.00
7407;BME280;3745;56.964;24.128;2023-05-23T03:45:55;101590.53;;;14.54;100.00
7407;BME280;3745;56.964;24.128;2023-05-23T03:48:21;101585.44;;;14.54;100.00
7407;BME280;3745;56.964;24.128;2023-05-23T03:50:47;101580.41;;;14.63;100.00
7407;BME280;3745;56.964;24.128;2023-05-23T03:53:12;101573.59;;;14.62;100.00
7407;BME280;3745;56.964;24.128;2023-05-23T03:55:38;101570.19;;;14.60;100.00
7407;BME280;3745;56.964;24.128;2023-05-23T03:58:04;101580.53;;;14.76;100.00
7407;BME280;3745;56.964;24.128;2023-05-23T04:00:29;101558.41;;;14.72;100.00
7407;BME280;3745;56.964;24.128;2023-05-23T04:02:55;101572.03;;;14.77;100.00
7407;BME280;3745;56.964;24.128;2023-05-23T04:05:21;101572.16;;;14.89;100.00
7407;BME280;3745;56.964;24.128;2023-05-23T04:07:47;101544.03;;;14.81;100.00
7407;BME280;3745;56.964;24.128;2023-05-23T04:10:13;101539.84;;;14.88;100.00
7407;BME280;3745;56.964;24.128;2023-05-23T04:12:38;101570.63;;;15.15;100.00
7407;BME280;3745;56.964;24.128;2023-05-23T04:15:06;101546.81;;;15.10;100.00
7407;BME280;3745;56.964;24.128;2023-05-23T04:17:32;101558.84;;;15.31;100.00
7407;BME280;3745;56.964;24.128;2023-05-23T04:19:58;101555.44;;;15.33;100.00
7407;BME280;3745;56.964;24.128;2023-05-23T04:22:23;101549.47;;;15.30;100.00
7407;BME280;3745;56.964;24.128;2023-05-23T04:24:49;101564.09;;;15.50;100.00
7407;BME280;3745;56.964;24.128;2023-05-23T04:27:14;101553.81;;;15.44;100.00
7407;BME280;3745;56.964;24.128;2023-05-23T04:29:40;101558.16;;;15.53;100.00
7407;BME280;3745;56.964;24.128;2023-05-23T04:32:06;101548.81;;;15.50;100.00
7407;BME280;3745;56.964;24.128;2023-05-23T04:34:32;101540.25;;;15.48;100.00
7407;BME280;3745;56.964;24.128;2023-05-23T04:37:01;101564.19;;;15.68;100.00
7407;BME280;3745;56.964;24.128;2023-05-23T04:39:28;101559.13;;;15.75;100.00
7407;BME280;3745;56.964;24.128;2023-05-23T04:41:54;101554.03;;;15.78;100.00
7407;BME280;3745;56.964;24.128;2023-05-23T04:44:21;101536.19;;;15.81;100.00
7407;BME280;3745;56.964;24.128;2023-05-23T04:46:47;101555.78;;;16.00;100.00
7407;BME280;3745;56.964;24.128;2023-05-23T04:49:15;101562.59;;;15.98;100.00
7407;BME280;3745;56.964;24.128;2023-05-23T04:51:41;101560.91;;;16.00;100.00
7407;BME280;3745;56.964;24.128;2023-05-23T04:54:07;101557.53;;;16.13;100.00
7407;BME280;3745;56.964;24.128;2023-05-23T04:56:33;101556.72;;;16.26;100.00
7407;BME280;3745;56.964;24.128;2023-05-23T04:58:58;101549.94;;;16.30;100.00
7407;BME280;3745;56.964;24.128;2023-05-23T05:01:24;101529.50;;;16.26;100.00
7407;BME280;3745;56.964;24.128;2023-05-23T05:03:50;101550.81;;;16.48;100.00
7407;BME280;3745;56.964;24.128;2023-05-23T05:06:16;101525.25;;;16.48;100.00
7407;BME280;3745;56.964;24.128;2023-05-23T05:08:43;101547.44;;;16.76;100.00
7407;BME280;3745;56.964;24.128;2023-05-23T05:11:09;101546.59;;;16.85;100.00
7407;BME280;3745;56.964;24.128;2023-05-23T05:13:35;101515.91;;;16.88;100.00
7407;BME280;3745;56.964;24.128;2023-05-23T05:16:01;101534.66;;;17.07;100.00
7407;BME280;3745;56.964;24.128;2023-05-23T05:18:27;101532.94;;;17.19;100.00
7407;BME280;3745;56.964;24.128;2023-05-23T05:20:53;101540.59;;;17.18;100.00
7407;BME280;3745;56.964;24.128;2023-05-23T05:23:24;101525.22;;;17.24;100.00
7407;BME280;3745;56.964;24.128;2023-05-23T05:25:50;101533.72;;;17.29;100.00
7407;BME280;3745;56.964;24.128;2023-05-23T05:28:16;101532.03;;;17.37;100.00
7407;BME280;3745;56.964;24.128;2023-05-23T05:30:41;101517.44;;;17.54;100.00
7407;BME280;3745;56.964;24.128;2023-05-23T05:33:07;101519.13;;;17.69;100.00
7407;BME280;3745;56.964;24.128;2023-05-23T05:35:33;101517.34;;;17.86;100.00
7407;BME280;3745;56.964;24.128;2023-05-23T05:38:00;101509.66;;;17.84;100.00
7407;BME280;3745;56.964;24.128;2023-05-23T05:40:27;101524.94;;;18.09;100.00
7407;BME280;3745;56.964;24.128;2023-05-23T05:42:52;101521.44;;;18.16;100.00
7407;BME280;3745;56.964;24.128;2023-05-23T05:45:18;101531.59;;;18.31;100.00
7407;BME280;3745;56.964;24.128;2023-05-23T05:47:45;101526.44;;;18.37;100.00
7407;BME280;3745;56.964;24.128;2023-05-23T05:50:11;101516.13;;;18.43;100.00
7407;BME280;3745;56.964;24.128;2023-05-23T05:52:37;101522.00;;;18.63;100.00
7407;BME280;3745;56.964;24.128;2023-05-23T05:55:07;101515.94;;;18.70;100.00
7407;BME280;3745;56.964;24.128;2023-05-23T05:57:33;101509.00;;;18.84;100.00
7407;BME280;3745;56.964;24.128;2023-05-23T05:59:58;101517.47;;;18.89;100.00
7407;BME280;3745;56.964;24.128;2023-05-23T06:02:24;101489.28;;;18.86;100.00
7407;BME280;3745;56.964;24.128;2023-05-23T06:04:51;101519.88;;;19.08;100.00
7407;BME280;3745;56.964;24.128;2023-05-23T06:07:17;101511.16;;;19.25;100.00
7407;BME280;3745;56.964;24.128;2023-05-23T06:09:42;101515.34;;;19.34;100.00
7407;BME280;3745;56.964;24.128;2023-05-23T06:12:09;101505.09;;;19.31;100.00
7407;BME280;3745;56.964;24.128;2023-05-23T06:14:34;101452.25;;;19.12;100.00
7407;BME280;3745;56.964;24.128;2023-05-23T06:17:00;101501.31;;;19.65;100.00
7407;BME280;3745;56.964;24.128;2023-05-23T06:19:25;101516.47;;;19.83;100.00
7407;BME280;3745;56.964;24.128;2023-05-23T06:21:51;101512.94;;;19.90;100.00
7407;BME280;3745;56.964;24.128;2023-05-23T06:24:17;101441.28;;;19.69;100.00
7407;BME280;3745;56.964;24.128;2023-05-23T06:26:42;101498.06;;;20.14;100.00
7407;BME280;3745;56.964;24.128;2023-05-23T06:29:08;101456.16;;;20.09;100.00
7407;BME280;3745;56.964;24.128;2023-05-23T06:31:37;101488.50;;;20.22;100.00
7407;BME280;3745;56.964;24.128;2023-05-23T06:34:02;101503.06;;;20.21;100.00
7407;BME280;3745;56.964;24.128;2023-05-23T06:36:28;101508.84;;;20.37;100.00
7407;BME280;3745;56.964;24.128;2023-05-23T06:38:53;101455.06;;;20.23;100.00
7407;BME280;3745;56.964;24.128;2023-05-23T06:41:19;101506.69;;;20.66;100.00
7407;BME280;3745;56.964;24.128;2023-05-23T06:43:44;101499.50;;;20.83;100.00
7407;BME280;3745;56.964;24.128;2023-05-23T06:46:10;101487.75;;;20.70;100.00
7407;BME280;3745;56.964;24.128;2023-05-23T06:48:35;101461.31;;;20.61;100.00
7407;BME280;3745;56.964;24.128;2023-05-23T06:51:01;101484.06;;;20.83;100.00
7407;BME280;3745;56.964;24.128;2023-05-23T06:53:26;101476.97;;;20.96;100.00
7407;BME280;3745;56.964;24.128;2023-05-23T06:55:52;101461.56;;;20.94;100.00
7407;BME280;3745;56.964;24.128;2023-05-23T06:58:18;101443.06;;;20.74;100.00
7407;BME280;3745;56.964;24.128;2023-05-23T07:00:43;101503.34;;;21.10;100.00
7407;BME280;3745;56.964;24.128;2023-05-23T07:03:09;101500.50;;;21.24;100.00
7407;BME280;3745;56.964;24.128;2023-05-23T07:05:35;101493.50;;;21.32;100.00
7407;BME280;3745;56.964;24.128;2023-05-23T07:08:01;101489.03;;;21.40;100.00
7407;BME280;3745;56.964;24.128;2023-05-23T07:10:26;101492.28;;;21.48;100.00
7407;BME280;3745;56.964;24.128;2023-05-23T07:12:52;101492.03;;;21.60;100.00
7407;BME280;3745;56.964;24.128;2023-05-23T07:15:17;101487.31;;;21.80;100.00
7407;BME280;3745;56.964;24.128;2023-05-23T07:17:43;101441.19;;;21.68;100.00
7407;BME280;3745;56.964;24.128;2023-05-23T07:20:09;101444.91;;;21.95;100.00
7407;BME280;3745;56.964;24.128;2023-05-23T07:22:35;101409.81;;;21.89;100.00
7407;BME280;3745;56.964;24.128;2023-05-23T07:25:00;101488.00;;;22.27;100.00
7407;BME280;3745;56.964;24.128;2023-05-23T07:27:26;101487.09;;;22.28;100.00
7407;BME280;3745;56.964;24.128;2023-05-23T07:29:51;101484.72;;;22.19;100.00
7407;BME280;3745;56.964;24.128;2023-05-23T07:32:17;101431.84;;;22.02;100.00
7407;BME280;3745;56.964;24.128;2023-05-23T07:34:43;101435.47;;;22.29;100.00
7407;BME280;3745;56.964;24.128;2023-05-23T07:37:11;101435.88;;;22.48;100.00
7407;BME280;3745;56.964;24.128;2023-05-23T07:39:37;101457.78;;;22.67;98.44
7407;BME280;3745;56.964;24.128;2023-05-23T07:42:03;101480.22;;;22.62;98.90
7407;BME280;3745;56.964;24.128;2023-05-23T07:44:28;101434.78;;;22.56;98.98
7407;BME280;3745;56.964;24.128;2023-05-23T07:46:54;101434.31;;;22.41;95.97
7407;BME280;3745;56.964;24.128;2023-05-23T07:49:20;101453.47;;;22.31;96.48
7407;BME280;3745;56.964;24.128;2023-05-23T07:51:45;101417.28;;;22.34;93.36
7407;BME280;3745;56.964;24.128;2023-05-23T07:54:11;101392.88;;;22.47;93.02
7407;BME280;3745;56.964;24.128;2023-05-23T07:56:37;101431.47;;;22.85;90.36
7407;BME280;3745;56.964;24.128;2023-05-23T07:59:06;101468.38;;;23.19;88.93
7407;BME280;3745;56.964;24.128;2023-05-23T08:01:32;101451.38;;;23.12;82.07
7407;BME280;3745;56.964;24.128;2023-05-23T08:03:58;101423.84;;;23.11;77.02
7407;BME280;3745;56.964;24.128;2023-05-23T08:06:24;101436.63;;;23.16;74.00
7407;BME280;3745;56.964;24.128;2023-05-23T08:08:50;101422.22;;;23.07;76.72
7407;BME280;3745;56.964;24.128;2023-05-23T08:11:15;101456.63;;;23.09;77.93
7407;BME280;3745;56.964;24.128;2023-05-23T08:13:41;101428.41;;;23.02;75.66
7407;BME280;3745;56.964;24.128;2023-05-23T08:16:06;101371.34;;;22.80;77.59
7407;BME280;3745;56.964;24.128;2023-05-23T08:18:32;101455.69;;;23.43;72.56
7407;BME280;3745;56.964;24.128;2023-05-23T08:20:57;101423.94;;;23.38;74.46
7407;BME280;3745;56.964;24.128;2023-05-23T08:23:23;101420.44;;;23.40;73.90
7407;BME280;3745;56.964;24.128;2023-05-23T08:25:48;101458.31;;;23.69;71.78
7407;BME280;3745;56.964;24.128;2023-05-23T08:28:14;101448.34;;;23.86;67.85
7407;BME280;3745;56.964;24.128;2023-05-23T08:30:40;101425.63;;;23.68;66.18
7407;BME280;3745;56.964;24.128;2023-05-23T08:33:06;101455.41;;;24.07;62.33
7407;BME280;3745;56.964;24.128;2023-05-23T08:35:32;101391.72;;;24.03;61.85
7407;BME280;3745;56.964;24.128;2023-05-23T08:38:00;101450.25;;;24.60;62.27
7407;BME280;3745;56.964;24.128;2023-05-23T08:40:30;101436.31;;;24.64;62.18
7407;BME280;3745;56.964;24.128;2023-05-23T08:42:57;101452.22;;;24.52;63.28
7407;BME280;3745;56.964;24.128;2023-05-23T08:45:22;101433.97;;;24.56;65.28
7407;BME280;3745;56.964;24.128;2023-05-23T08:47:50;101446.88;;;24.58;65.84
7407;BME280;3745;56.964;24.128;2023-05-23T08:50:17;101437.63;;;24.24;65.71
7407;BME280;3745;56.964;24.128;2023-05-23T08:52:57;101449.31;;;23.82;67.57
7407;BME280;3745;56.964;24.128;2023-05-23T08:55:24;101461.09;;;23.63;69.32
7407;BME280;3745;56.964;24.128;2023-05-23T08:57:59;101456.84;;;23.62;70.57
7407;BME280;3745;56.964;24.128;2023-05-23T09:00:26;101464.13;;;23.48;72.01
7407;BME280;3745;56.964;24.128;2023-05-23T09:02:52;101464.13;;;23.48;72.83
7407;BME280;3745;56.964;24.128;2023-05-23T09:05:19;101416.97;;;23.10;72.00
7407;BME280;3745;56.964;24.128;2023-05-23T09:07:45;101455.31;;;23.26;73.61
7407;BME280;3745;56.964;24.128;2023-05-23T09:10:12;101425.34;;;23.18;71.62
7407;BME280;3745;56.964;24.128;2023-05-23T09:12:38;101447.59;;;23.22;71.55
7407;BME280;3745;56.964;24.128;2023-05-23T09:15:05;101443.63;;;23.12;73.32
7407;BME280;3745;56.964;24.128;2023-05-23T09:17:33;101437.16;;;22.98;72.42
7407;BME280;3745;56.964;24.128;2023-05-23T09:19:59;101390.66;;;22.67;72.60
7407;BME280;3745;56.964;24.128;2023-05-23T09:22:26;101349.09;;;22.45;71.20
7407;BME280;3745;56.964;24.128;2023-05-23T09:24:54;101437.97;;;22.98;70.57
7407;BME280;3745;56.964;24.128;2023-05-23T09:27:20;101439.00;;;22.93;69.45
7407;BME280;3745;56.964;24.128;2023-05-23T09:29:46;101441.38;;;23.00;69.62
7407;BME280;3745;56.964;24.128;2023-05-23T09:32:16;101432.28;;;23.16;69.15
7407;BME280;3745;56.964;24.128;2023-05-23T09:34:54;101421.16;;;23.14;67.34
7407;BME280;3745;56.964;24.128;2023-05-23T09:37:21;101440.00;;;23.18;67.03
7407;BME280;3745;56.964;24.128;2023-05-23T09:39:49;101438.38;;;23.15;67.24
7407;BME280;3745;56.964;24.128;2023-05-23T09:42:21;101403.44;;;23.02;67.35
7407;BME280;3745;56.964;24.128;2023-05-23T09:44:48;101367.97;;;22.78;67.77
7407;BME280;3745;56.964;24.128;2023-05-23T09:47:15;101446.72;;;23.23;66.70
7407;BME280;3745;56.964;24.128;2023-05-23T09:49:47;101447.47;;;23.29;66.01
7407;BME280;3745;56.964;24.128;2023-05-23T09:52:13;101402.03;;;23.51;64.16
7407;BME280;3745;56.964;24.128;2023-05-23T09:54:39;101429.53;;;24.07;62.30
7407;BME280;3745;56.964;24.128;2023-05-23T09:57:09;101436.50;;;24.58;61.28
7407;BME280;3745;56.964;24.128;2023-05-23T09:59:38;101413.91;;;24.88;59.97
7407;BME280;3745;56.964;24.128;2023-05-23T10:02:10;101389.41;;;25.19;57.32
7407;BME280;3745;56.964;24.128;2023-05-23T10:04:37;101421.38;;;25.42;57.42
7407;BME280;3745;56.964;24.128;2023-05-23T10:07:09;101437.47;;;25.73;56.83
7407;BME280;3745;56.964;24.128;2023-05-23T10:09:38;101430.91;;;26.06;55.18
7407;BME280;3745;56.964;24.128;2023-05-23T10:14:57;101395.06;;;25.74;55.24
7407;BME280;3745;56.964;24.128;2023-05-23T10:17:38;101417.91;;;25.86;53.20
7407;BME280;3745;56.964;24.128;2023-05-23T10:20:10;101436.38;;;26.00;52.11
7407;BME280;3745;56.964;24.128;2023-05-23T10:22:37;101375.44;;;25.88;51.91
7407;BME280;3745;56.964;24.128;2023-05-23T10:25:03;101358.63;;;25.77;52.35
7407;BME280;3745;56.964;24.128;2023-05-23T10:27:38;101378.56;;;25.97;52.72
7407;BME280;3745;56.964;24.128;2023-05-23T10:30:08;101378.50;;;25.98;51.46
7407;BME280;3745;56.964;24.128;2023-05-23T10:32:36;101410.94;;;26.30;51.54
7407;BME280;3745;56.964;24.128;2023-05-23T10:35:37;101422.13;;;26.10;49.61
7407;BME280;3745;56.964;24.128;2023-05-23T10:38:27;101413.44;;;26.11;49.28
7407;BME280;3745;56.964;24.128;2023-05-23T10:41:15;101415.59;;;26.00;49.67
7407;BME280;3745;56.964;24.128;2023-05-23T10:44:11;101414.78;;;25.78;51.61
7407;BME280;3745;56.964;24.128;2023-05-23T10:46:58;101392.00;;;25.64;52.11
7407;BME280;3745;56.964;24.128;2023-05-23T10:49:43;101414.31;;;25.90;50.74
7407;BME280;3745;56.964;24.128;2023-05-23T10:52:11;101381.47;;;25.89;48.73
7407;BME280;3745;56.964;24.128;2023-05-23T10:54:43;101414.38;;;26.30;50.53
7407;BME280;3745;56.964;24.128;2023-05-23T10:57:10;101408.75;;;26.21;48.98
7407;BME280;3745;56.964;24.128;2023-05-23T10:59:39;101412.19;;;26.42;49.42
7407;BME280;3745;56.964;24.128;2023-05-23T11:02:15;101418.28;;;26.61;49.17
7407;BME280;3745;56.964;24.128;2023-05-23T11:04:41;101412.16;;;26.62;48.13
7407;BME280;3745;56.964;24.128;2023-05-23T11:07:39;101422.34;;;26.46;47.69
7407;BME280;3745;56.964;24.128;2023-05-23T11:10:12;101424.09;;;26.46;47.04
7407;BME280;3745;56.964;24.128;2023-05-23T11:12:42;101384.09;;;26.09;48.28
7407;BME280;3745;56.964;24.128;2023-05-23T11:15:20;101413.44;;;26.11;46.45
7407;BME280;3745;56.964;24.128;2023-05-23T11:17:57;101398.00;;;26.08;48.13
7407;BME280;3745;56.964;24.128;2023-05-23T11:20:24;101401.63;;;25.82;49.73
7407;BME280;3745;56.964;24.128;2023-05-23T11:23:06;101353.31;;;25.37;50.25
7407;BME280;3745;56.964;24.128;2023-05-23T11:25:43;101400.75;;;25.39;49.23
7407;BME280;3745;56.964;24.128;2023-05-23T11:28:10;101389.41;;;25.19;50.46
7407;BME280;3745;56.964;24.128;2023-05-23T11:30:37;101390.56;;;25.11;51.59
7407;BME280;3745;56.964;24.128;2023-05-23T11:33:10;101348.06;;;24.93;50.45
7407;BME280;3745;56.964;24.128;2023-05-23T11:35:44;101391.94;;;25.21;50.26
7407;BME280;3745;56.964;24.128;2023-05-23T11:38:10;101374.06;;;25.13;50.42
7407;BME280;3745;56.964;24.128;2023-05-23T11:40:37;101398.38;;;25.32;51.13
7407;BME280;3745;56.964;24.128;2023-05-23T11:43:04;101406.63;;;25.44;51.80
7407;BME280;3745;56.964;24.128;2023-05-23T11:45:31;101375.53;;;25.20;49.44
7407;BME280;3745;56.964;24.128;2023-05-23T11:47:57;101361.69;;;25.21;48.87
7407;BME280;3745;56.964;24.128;2023-05-23T11:50:23;101401.16;;;25.73;46.82
7407;BME280;3745;56.964;24.128;2023-05-23T11:52:49;101407.09;;;25.75;45.78
7407;BME280;3745;56.964;24.128;2023-05-23T11:55:19;101393.31;;;25.74;46.58
7407;BME280;3745;56.964;24.128;2023-05-23T11:57:46;101380.16;;;25.79;44.78
7407;BME280;3745;56.964;24.128;2023-05-23T12:00:12;101395.22;;;25.91;44.71
7407;BME280;3745;56.964;24.128;2023-05-23T12:02:42;101395.09;;;25.94;44.75
7407;BME280;3745;56.964;24.128;2023-05-23T12:05:12;101395.22;;;25.91;45.64
7407;BME280;3745;56.964;24.128;2023-05-23T12:07:49;101383.94;;;25.92;44.79
7407;BME280;3745;56.964;24.128;2023-05-23T12:10:15;101384.22;;;26.06;44.78
7407;BME280;3745;56.964;24.128;2023-05-23T12:12:41;101371.75;;;25.94;44.94
7407;BME280;3745;56.964;24.128;2023-05-23T12:15:09;101349.16;;;25.54;44.51
7407;BME280;3745;56.964;24.128;2023-05-23T12:17:43;101361.75;;;25.42;45.04
7407;BME280;3745;56.964;24.128;2023-05-23T12:20:10;101382.84;;;25.56;44.93
7407;BME280;3745;56.964;24.128;2023-05-23T12:22:36;101379.00;;;25.43;45.23
7407;BME280;3745;56.964;24.128;2023-05-23T12:25:02;101361.56;;;25.24;44.94
7407;BME280;3745;56.964;24.128;2023-05-23T12:27:32;101379.03;;;25.19;44.71
7407;BME280;3745;56.964;24.128;2023-05-23T12:30:17;101343.44;;;25.01;45.31
7407;BME280;3745;56.964;24.128;2023-05-23T12:32:45;101385.31;;;25.35;45.11
7407;BME280;3745;56.964;24.128;2023-05-23T12:35:13;101381.94;;;25.33;45.72
7407;BME280;3745;56.964;24.128;2023-05-23T12:37:43;101359.63;;;25.29;45.87
7407;BME280;3745;56.964;24.128;2023-05-23T12:40:16;101383.28;;;25.44;46.27
7407;BME280;3745;56.964;24.128;2023-05-23T12:43:07;101370.81;;;25.08;47.93
7407;BME280;3745;56.964;24.128;2023-05-23T12:45:34;101381.16;;;25.08;50.27
7407;BME280;3745;56.964;24.128;2023-05-23T12:48:04;101374.03;;;24.92;52.83
7407;BME280;3745;56.964;24.128;2023-05-23T12:50:31;101379.03;;;24.96;53.67
7407;BME280;3745;56.964;24.128;2023-05-23T12:52:57;101298.69;;;24.51;54.51
7407;BME280;3745;56.964;24.128;2023-05-23T12:55:22;101381.28;;;25.05;54.82
7407;BME280;3745;56.964;24.128;2023-05-23T12:57:48;101383.72;;;25.10;53.86
7407;BME280;3745;56.964;24.128;2023-05-23T13:00:14;101375.75;;;25.14;53.03
7407;BME280;3745;56.964;24.128;2023-05-23T13:02:40;101387.47;;;25.24;53.97
7407;BME280;3745;56.964;24.128;2023-05-23T13:05:06;101331.16;;;25.06;54.23
7407;BME280;3745;56.964;24.128;2023-05-23T13:07:32;101380.59;;;25.23;53.61